createdAt,value
2022-11-07T00:01:55.793Z,24.67
2022-11-07T00:04:22.834Z,23.60
2022-11-07T00:06:49.881Z,24.77
2022-11-07T00:09:16.963Z,26.52
2022-11-07T00:11:43.996Z,25.05
2022-11-07T00:14:15.779Z,25.70
2022-11-07T00:16:44.337Z,24.17
2022-11-07T00:19:12.847Z,21.35
2022-11-07T00:21:40.501Z,26.48
2022-11-07T00:24:08.481Z,26.27
2022-11-07T00:26:37.007Z,26.13
2022-11-07T00:29:05.172Z,28.23
2022-11-07T00:31:32.577Z,26.52
2022-11-07T00:33:59.759Z,27.13
2022-11-07T00:36:28.546Z,24.92
2022-11-07T00:38:55.935Z,25.77
2022-11-07T00:41:23.869Z,28.08
2022-11-07T00:43:51.208Z,27.92
2022-11-07T00:46:19.716Z,26.17
2022-11-07T00:48:47.530Z,27.13
2022-11-07T00:51:20.759Z,26.90
2022-11-07T00:56:18.133Z,25.05
2022-11-07T00:58:45.405Z,27.88
2022-11-07T01:01:15.531Z,28.23
2022-11-07T01:04:01.862Z,25.35
2022-11-07T01:06:31.201Z,29.63
2022-11-07T01:08:58.995Z,25.30
2022-11-07T01:11:29.840Z,30.95
2022-11-07T01:13:59.011Z,31.30
2022-11-07T01:16:27.184Z,26.52
2022-11-07T01:18:55.077Z,31.00
2022-11-07T01:21:22.487Z,22.80
2022-11-07T01:23:49.724Z,29.85
2022-11-07T01:26:17.710Z,27.05
2022-11-07T01:28:45.009Z,27.58
2022-11-07T01:31:14.292Z,31.67
2022-11-07T01:33:41.952Z,27.60
2022-11-07T01:36:16.188Z,25.83
2022-11-07T01:38:46.495Z,23.83
2022-11-07T01:41:23.403Z,25.40
2022-11-07T01:44:08.442Z,26.58
2022-11-07T01:46:36.624Z,29.20
2022-11-07T01:49:38.175Z,28.98
2022-11-07T01:52:27.620Z,28.52
2022-11-07T01:55:05.207Z,30.25
2022-11-07T01:57:39.430Z,27.55
2022-11-07T02:00:11.317Z,25.42
2022-11-07T02:02:39.585Z,24.52
2022-11-07T02:05:09.438Z,25.90
2022-11-07T02:07:38.409Z,32.08
2022-11-07T02:10:06.637Z,27.95
2022-11-07T02:12:34.181Z,27.95
2022-11-07T02:15:21.158Z,27.95
2022-11-07T02:17:48.974Z,29.83
2022-11-07T02:20:16.211Z,26.52
2022-11-07T02:22:50.755Z,27.10
2022-11-07T02:25:20.019Z,24.08
2022-11-07T02:27:52.318Z,26.88
2022-11-07T02:30:22.711Z,23.55
2022-11-07T02:32:50.303Z,26.60
2022-11-07T02:35:35.354Z,26.65
2022-11-07T02:38:06.546Z,27.08
2022-11-07T02:40:33.922Z,26.50
2022-11-07T02:43:01.482Z,27.63
2022-11-07T02:45:33.046Z,27.95
2022-11-07T02:48:00.336Z,27.95
2022-11-07T02:50:27.959Z,25.65
2022-11-07T02:52:55.085Z,26.15
2022-11-07T02:55:22.348Z,27.05
2022-11-07T02:57:49.574Z,23.92
2022-11-07T03:00:17.125Z,29.92
2022-11-07T03:02:47.338Z,28.83
2022-11-07T03:05:17.312Z,27.58
2022-11-07T03:07:45.901Z,22.77
2022-11-07T03:10:15.055Z,23.42
2022-11-07T03:12:42.586Z,25.70
2022-11-07T03:15:11.876Z,25.20
2022-11-07T03:17:39.292Z,24.95
2022-11-07T03:20:08.207Z,28.17
2022-11-07T03:22:35.210Z,27.80
2022-11-07T03:25:04.900Z,26.00
2022-11-07T03:27:33.416Z,23.05
2022-11-07T03:30:00.705Z,22.92
2022-11-07T03:32:27.968Z,23.95
2022-11-07T03:34:55.023Z,28.60
2022-11-07T03:37:23.314Z,25.48
2022-11-07T03:39:50.595Z,22.92
2022-11-07T03:42:17.929Z,28.25
2022-11-07T03:44:47.096Z,21.52
2022-11-07T03:47:15.256Z,22.67
2022-11-07T03:49:42.454Z,21.35
2022-11-07T03:52:12.303Z,24.08
2022-11-07T03:54:39.586Z,21.92
2022-11-07T03:57:06.656Z,21.60
2022-11-07T03:59:36.986Z,21.42
2022-11-07T04:02:04.153Z,21.70
2022-11-07T04:04:31.263Z,19.80
2022-11-07T04:07:05.696Z,19.08
2022-11-07T04:09:32.762Z,20.20
2022-11-07T04:12:18.539Z,19.88
2022-11-07T04:15:10.801Z,17.45
2022-11-07T04:17:40.582Z,18.25
2022-11-07T04:20:08.454Z,18.77
2022-11-07T04:22:35.780Z,17.25
2022-11-07T04:25:03.516Z,16.58
2022-11-07T04:27:42.884Z,16.90
2022-11-07T04:30:30.231Z,15.35
2022-11-07T04:32:59.547Z,17.27
2022-11-07T04:35:29.083Z,17.00
2022-11-07T04:37:56.212Z,17.13
2022-11-07T04:40:23.675Z,18.75
2022-11-07T04:42:51.409Z,18.85
2022-11-07T04:45:18.566Z,16.67
2022-11-07T04:47:45.907Z,16.58
2022-11-07T04:50:16.385Z,14.43
2022-11-07T04:52:43.768Z,20.77
2022-11-07T04:55:18.465Z,16.65
2022-11-07T04:57:45.782Z,18.52
2022-11-07T05:00:13.492Z,16.63
2022-11-07T05:02:40.673Z,22.08
2022-11-07T05:05:08.186Z,21.00
2022-11-07T05:07:35.297Z,18.50
2022-11-07T05:10:02.665Z,19.75
2022-11-07T05:12:30.113Z,17.50
2022-11-07T05:14:57.263Z,15.77
2022-11-07T05:17:27.945Z,17.23
2022-11-07T05:19:55.294Z,19.48
2022-11-07T05:22:40.817Z,16.88
2022-11-07T05:25:08.534Z,17.33
2022-11-07T05:27:35.552Z,22.25
2022-11-07T05:30:02.617Z,17.73
2022-11-07T05:32:30.447Z,18.00
2022-11-07T05:34:57.611Z,20.30
2022-11-07T05:37:24.661Z,17.73
2022-11-07T05:39:55.014Z,17.83
2022-11-07T05:42:22.382Z,16.60
2022-11-07T05:44:49.694Z,19.13
2022-11-07T05:47:16.762Z,18.92
2022-11-07T05:49:43.782Z,21.52
2022-11-07T05:52:10.841Z,19.83
2022-11-07T05:54:37.866Z,20.73
2022-11-07T05:57:05.049Z,17.73
2022-11-07T05:59:32.098Z,18.45
2022-11-07T06:01:59.761Z,21.95
2022-11-07T06:04:29.462Z,21.70
2022-11-07T06:06:56.457Z,17.77
2022-11-07T06:09:23.575Z,16.60
2022-11-07T06:11:51.679Z,16.88
2022-11-07T06:14:18.679Z,19.60
2022-11-07T06:16:45.723Z,17.60
2022-11-07T06:19:12.772Z,18.02
2022-11-07T06:21:40.042Z,19.48
2022-11-07T06:24:12.413Z,18.70
2022-11-07T06:26:42.106Z,17.25
2022-11-07T06:29:09.098Z,17.50
2022-11-07T06:31:36.245Z,17.63
2022-11-07T06:34:03.344Z,18.17
2022-11-07T06:36:30.614Z,14.45
2022-11-07T06:38:57.793Z,16.60
2022-11-07T06:41:24.829Z,14.20
2022-11-07T06:43:53.975Z,17.88
2022-11-07T06:46:22.858Z,18.55
2022-11-07T06:48:49.924Z,17.88
2022-11-07T06:51:17.123Z,16.02
2022-11-07T06:53:44.146Z,17.27
2022-11-07T06:56:15.092Z,19.25
2022-11-07T06:58:42.328Z,20.10
2022-11-07T07:01:13.709Z,16.92
2022-11-07T07:03:42.172Z,19.05
2022-11-07T07:06:14.284Z,17.13
2022-11-07T07:08:41.891Z,18.30
2022-11-07T07:11:14.055Z,18.83
2022-11-07T07:13:41.723Z,15.93
2022-11-07T07:16:09.209Z,17.50
2022-11-07T07:18:36.593Z,19.95
2022-11-07T07:21:06.790Z,18.17
2022-11-07T07:23:38.420Z,19.65
2022-11-07T07:26:08.448Z,16.35
2022-11-07T07:28:37.662Z,20.48
2022-11-07T07:31:22.335Z,18.85
2022-11-07T07:33:49.458Z,18.45
2022-11-07T07:36:21.171Z,17.38
2022-11-07T07:38:49.252Z,20.02
2022-11-07T07:41:17.265Z,22.65
2022-11-07T07:43:46.415Z,19.42
2022-11-07T07:46:21.518Z,19.00
2022-11-07T07:48:48.678Z,20.42
2022-11-07T07:51:15.786Z,18.02
2022-11-07T07:53:45.241Z,20.40
2022-11-07T07:56:12.341Z,18.85
2022-11-07T07:58:39.385Z,17.83
2022-11-07T08:01:10.543Z,18.98
2022-11-07T08:03:59.779Z,19.95
2022-11-07T08:06:25.437Z,20.52
2022-11-07T08:08:52.847Z,16.25
2022-11-07T08:11:20.188Z,15.25
2022-11-07T08:13:47.987Z,13.80
2022-11-07T08:16:15.150Z,17.17
2022-11-07T08:18:42.245Z,19.95
2022-11-07T08:21:09.610Z,15.68
2022-11-07T08:23:36.815Z,17.20
2022-11-07T08:26:04.874Z,19.42
2022-11-07T08:28:34.885Z,16.55
2022-11-07T08:31:04.995Z,17.48
2022-11-07T08:33:32.374Z,21.83
2022-11-07T08:36:01.397Z,23.17
2022-11-07T08:38:30.750Z,27.98
2022-11-07T08:40:58.134Z,19.23
2022-11-07T08:43:25.488Z,18.60
2022-11-07T08:45:55.111Z,18.58
2022-11-07T08:48:23.299Z,21.67
2022-11-07T08:50:55.289Z,15.35
2022-11-07T08:53:23.050Z,16.52
2022-11-07T08:55:50.134Z,16.33
2022-11-07T08:58:19.361Z,18.42
2022-11-07T09:00:46.798Z,16.92
2022-11-07T09:06:01.497Z,17.63
2022-11-07T09:08:29.071Z,17.08
2022-11-07T09:10:58.006Z,20.00
2022-11-07T09:13:25.071Z,17.90
2022-11-07T09:15:57.169Z,18.60
2022-11-07T09:18:24.247Z,14.38
2022-11-07T09:20:51.338Z,17.40
2022-11-07T09:23:18.871Z,12.82
2022-11-07T09:25:47.307Z,18.08
2022-11-07T09:28:15.529Z,18.77
2022-11-07T09:30:44.915Z,14.43
2022-11-07T09:33:12.260Z,17.13
2022-11-07T09:35:40.591Z,16.85
2022-11-07T09:38:07.700Z,16.73
2022-11-07T09:40:56.467Z,21.50
2022-11-07T09:43:59.406Z,20.23
2022-11-07T09:46:47.025Z,22.13
2022-11-07T09:49:18.022Z,17.13
2022-11-07T09:51:54.529Z,17.90
2022-11-07T09:54:27.983Z,20.83
2022-11-07T09:56:58.135Z,18.98
2022-11-07T09:59:32.275Z,17.63
2022-11-07T10:01:59.468Z,17.50
2022-11-07T10:04:27.241Z,19.02
2022-11-07T10:07:17.711Z,16.83
2022-11-07T10:09:56.033Z,17.67
2022-11-07T10:12:56.088Z,19.85
2022-11-07T10:15:41.948Z,21.90
2022-11-07T10:18:46.538Z,17.80
2022-11-07T10:21:40.387Z,17.33
2022-11-07T10:24:19.240Z,18.88
2022-11-07T10:26:46.407Z,21.70
2022-11-07T10:29:26.625Z,17.52
2022-11-07T10:31:59.334Z,18.40
2022-11-07T10:39:12.287Z,22.17
2022-11-07T10:42:59.097Z,19.73
2022-11-07T10:45:28.443Z,20.48
2022-11-07T10:48:02.584Z,19.13
2022-11-07T10:50:30.829Z,21.17
2022-11-07T10:53:05.918Z,19.90
2022-11-07T10:55:44.406Z,21.15
2022-11-07T10:58:23.020Z,20.02
2022-11-07T11:00:57.970Z,23.08
2022-11-07T11:03:43.837Z,22.63
2022-11-07T11:06:24.738Z,22.98
2022-11-07T11:08:53.283Z,21.25
2022-11-07T11:11:32.274Z,21.80
2022-11-07T11:14:09.359Z,23.30
2022-11-07T11:16:39.124Z,22.13
2022-11-07T11:19:16.651Z,21.70
2022-11-07T11:21:45.900Z,23.15
2022-11-07T11:24:18.219Z,23.45
2022-11-07T11:26:47.858Z,26.23
2022-11-07T11:29:33.202Z,24.85
2022-11-07T11:32:06.187Z,24.02
2022-11-07T11:34:57.842Z,27.48
2022-11-07T11:37:27.545Z,24.92
2022-11-07T11:40:02.510Z,23.55
2022-11-07T11:42:46.526Z,22.13
2022-11-07T11:45:18.575Z,24.95
2022-11-07T11:47:56.201Z,22.38
2022-11-07T11:50:32.103Z,20.98
2022-11-07T11:53:00.036Z,23.42
2022-11-07T11:55:38.331Z,25.10
2022-11-07T11:58:28.247Z,23.08
2022-11-07T12:01:32.968Z,25.48
2022-11-07T12:04:30.027Z,30.02
2022-11-07T12:07:18.282Z,27.75
2022-11-07T12:09:54.786Z,28.98
2022-11-07T12:12:33.246Z,28.45
2022-11-07T12:15:31.271Z,27.75
2022-11-07T12:18:25.092Z,30.38
2022-11-07T12:21:18.266Z,31.88
2022-11-07T12:24:21.616Z,30.40
2022-11-07T12:27:10.735Z,26.20
2022-11-07T12:29:59.636Z,29.98
2022-11-07T12:33:04.333Z,30.90
2022-11-07T12:35:48.683Z,29.27
2022-11-07T12:38:43.205Z,26.33
2022-11-07T12:41:13.603Z,28.80
2022-11-07T12:43:43.716Z,26.27
2022-11-07T12:46:38.262Z,25.65
2022-11-07T12:49:26.126Z,29.83
2022-11-07T12:52:05.070Z,31.23
2022-11-07T12:57:33.190Z,31.95
2022-11-07T13:00:17.494Z,31.40
2022-11-07T13:02:56.729Z,25.70
2022-11-07T13:05:36.109Z,29.10
2022-11-07T13:08:38.832Z,31.88
2022-11-07T13:11:06.102Z,30.85
2022-11-07T13:13:52.298Z,28.88
2022-11-07T13:16:31.735Z,27.70
2022-11-07T13:19:31.131Z,27.90
2022-11-07T13:22:03.395Z,28.58
2022-11-07T13:24:32.021Z,27.77
2022-11-07T13:27:00.185Z,29.48
2022-11-07T13:29:40.256Z,24.95
2022-11-07T13:32:10.614Z,26.30
2022-11-07T13:34:53.271Z,25.02
2022-11-07T13:37:23.990Z,25.65
2022-11-07T13:39:55.166Z,25.67
2022-11-07T13:42:26.177Z,31.35
2022-11-07T13:44:57.371Z,30.17
2022-11-07T13:47:33.334Z,29.75
2022-11-07T13:50:10.232Z,29.17
2022-11-07T13:52:55.214Z,25.98
2022-11-07T13:55:29.515Z,26.75
2022-11-07T13:58:10.100Z,30.13
2022-11-07T14:00:37.690Z,28.95
2022-11-07T14:03:05.965Z,27.67
2022-11-07T14:05:37.458Z,29.98
2022-11-07T14:08:08.699Z,24.35
2022-11-07T14:10:59.618Z,26.70
2022-11-07T14:13:41.607Z,31.15
2022-11-07T14:16:24.198Z,29.00
2022-11-07T14:18:58.418Z,27.17
2022-11-07T14:21:31.619Z,30.25
2022-11-07T14:24:01.594Z,29.75
2022-11-07T14:26:33.711Z,27.42
2022-11-07T14:29:02.280Z,28.60
2022-11-07T14:31:39.041Z,25.42
2022-11-07T14:34:20.518Z,26.55
2022-11-07T14:36:57.664Z,32.50
2022-11-07T14:39:41.143Z,30.30
2022-11-07T14:42:11.932Z,27.08
2022-11-07T14:44:54.371Z,30.08
2022-11-07T14:47:28.181Z,31.40
2022-11-07T14:50:00.272Z,25.85
2022-11-07T14:52:48.983Z,30.00
2022-11-07T14:55:45.510Z,29.00
2022-11-07T14:58:13.651Z,29.42
2022-11-07T15:01:29.276Z,29.20
2022-11-07T15:04:26.168Z,33.80
2022-11-07T15:06:53.479Z,30.83
2022-11-07T15:09:32.368Z,31.23
2022-11-07T15:12:01.358Z,32.35
2022-11-07T15:14:36.709Z,31.15
2022-11-07T15:17:07.648Z,30.88
2022-11-07T15:19:43.152Z,29.38
2022-11-07T15:22:32.463Z,31.73
2022-11-07T15:24:59.760Z,33.10
2022-11-07T15:27:37.581Z,27.90
2022-11-07T15:30:09.025Z,36.53
2022-11-07T15:32:42.992Z,31.08
2022-11-07T15:38:25.196Z,32.20
2022-11-07T15:40:55.248Z,26.33
2022-11-07T15:43:22.699Z,32.63
2022-11-07T15:45:53.839Z,33.92
2022-11-07T15:48:30.864Z,35.00
2022-11-07T15:50:58.065Z,30.75
2022-11-07T15:53:29.646Z,34.17
2022-11-07T15:55:59.816Z,31.23
2022-11-07T15:58:30.064Z,34.53
2022-11-07T16:00:58.789Z,32.90
2022-11-07T16:03:27.673Z,29.80
2022-11-07T16:05:58.213Z,34.50
2022-11-07T16:08:25.858Z,35.75
2022-11-07T16:11:01.223Z,34.47
2022-11-07T16:13:34.139Z,30.55
2022-11-07T16:16:03.402Z,36.42
2022-11-07T16:18:44.504Z,36.58
2022-11-07T16:21:11.845Z,32.92
2022-11-07T16:23:42.471Z,39.20
2022-11-07T16:26:14.287Z,34.25
2022-11-07T16:28:42.567Z,36.63
2022-11-07T16:31:09.687Z,35.33
2022-11-07T16:33:36.820Z,35.55
2022-11-07T16:36:21.082Z,35.35
2022-11-07T16:38:53.244Z,29.85
2022-11-07T16:41:25.769Z,31.67
2022-11-07T16:43:53.351Z,36.17
2022-11-07T16:46:53.929Z,37.35
2022-11-07T16:49:35.543Z,35.15
2022-11-07T16:52:10.210Z,38.38
2022-11-07T16:54:55.956Z,36.83
2022-11-07T16:57:31.073Z,39.53
2022-11-07T17:00:04.754Z,38.97
2022-11-07T17:02:44.324Z,37.70
2022-11-07T17:05:21.003Z,36.58
2022-11-07T17:07:57.645Z,49.40
2022-11-07T17:10:27.683Z,43.45
2022-11-07T17:13:00.584Z,40.00
2022-11-07T17:15:30.271Z,35.20
2022-11-07T17:18:00.587Z,37.25
2022-11-07T17:20:50.290Z,32.13
2022-11-07T17:23:18.290Z,36.55
2022-11-07T17:25:50.183Z,34.55
2022-11-07T17:28:17.721Z,29.73
2022-11-07T17:30:47.429Z,34.40
2022-11-07T17:33:14.783Z,28.45
2022-11-07T17:35:42.109Z,29.45
2022-11-07T17:38:17.272Z,31.65
2022-11-07T17:40:44.785Z,28.65
2022-11-07T17:43:12.054Z,28.40
2022-11-07T17:45:40.564Z,30.38
2022-11-07T17:48:10.034Z,29.05
2022-11-07T17:50:37.438Z,30.77
2022-11-07T17:53:15.138Z,30.02
2022-11-07T17:55:46.326Z,36.63
2022-11-07T17:58:16.248Z,35.88
2022-11-07T18:00:43.585Z,30.85
2022-11-07T18:03:10.793Z,32.13
2022-11-07T18:05:38.292Z,27.52
2022-11-07T18:08:07.113Z,33.58
2022-11-07T18:10:34.563Z,29.05
2022-11-07T18:13:01.683Z,27.73
2022-11-07T18:15:28.839Z,26.77
2022-11-07T18:17:55.923Z,28.35
2022-11-07T18:20:23.260Z,25.30
2022-11-07T18:22:50.294Z,29.60
2022-11-07T18:25:17.457Z,30.48
2022-11-07T18:27:44.637Z,26.63
2022-11-07T18:30:12.285Z,27.88
2022-11-07T18:32:39.455Z,22.70
2022-11-07T18:35:06.768Z,27.02
2022-11-07T18:37:34.277Z,30.50
2022-11-07T18:40:01.530Z,26.95
2022-11-07T18:42:33.685Z,32.28
2022-11-07T18:45:00.775Z,29.08
2022-11-07T18:47:30.304Z,30.95
2022-11-07T18:49:57.669Z,30.83
2022-11-07T18:52:24.993Z,27.13
2022-11-07T18:54:52.083Z,27.15
2022-11-07T18:57:19.443Z,31.67
2022-11-07T18:59:46.729Z,31.17
2022-11-07T19:02:14.409Z,28.63
2022-11-07T19:04:44.068Z,30.90
2022-11-07T19:07:11.205Z,32.28
2022-11-07T19:09:38.561Z,28.38
2022-11-07T19:12:05.852Z,27.08
2022-11-07T19:14:33.060Z,28.55
2022-11-07T19:17:00.316Z,32.92
2022-11-07T19:19:27.481Z,27.15
2022-11-07T19:21:54.685Z,27.33
2022-11-07T19:24:21.731Z,37.33
2022-11-07T19:26:48.874Z,31.50
2022-11-07T19:29:16.843Z,31.33
2022-11-07T19:31:44.044Z,29.42
2022-11-07T19:34:11.146Z,38.65
2022-11-07T19:36:38.276Z,35.40
2022-11-07T19:39:05.476Z,31.60
2022-11-07T19:41:32.631Z,37.35
2022-11-07T19:44:01.915Z,33.10
2022-11-07T19:46:29.388Z,33.53
2022-11-07T19:48:56.805Z,37.03
2022-11-07T19:51:24.138Z,36.75
2022-11-07T19:53:55.989Z,33.83
2022-11-07T19:56:24.491Z,36.67
2022-11-07T19:58:51.857Z,35.13
2022-11-07T20:01:22.385Z,33.13
2022-11-07T20:03:52.076Z,31.73
2022-11-07T20:06:22.343Z,37.10
2022-11-07T20:08:49.960Z,30.67
2022-11-07T20:11:21.647Z,42.00
2022-11-07T20:13:48.937Z,38.75
2022-11-07T20:16:16.363Z,30.77
2022-11-07T20:18:43.657Z,32.50
2022-11-07T20:21:30.999Z,35.08
2022-11-07T20:23:59.616Z,33.08
2022-11-07T20:26:29.558Z,33.40
2022-11-07T20:28:57.269Z,34.33
2022-11-07T20:31:33.034Z,31.75
2022-11-07T20:34:02.571Z,40.63
2022-11-07T20:36:31.500Z,38.78
2022-11-07T20:39:02.182Z,30.85
2022-11-07T20:41:29.231Z,34.95
2022-11-07T20:44:04.029Z,29.25
2022-11-07T20:46:32.760Z,31.63
2022-11-07T20:49:04.922Z,34.45
2022-11-07T20:51:32.117Z,33.57
2022-11-07T20:53:59.326Z,35.75
2022-11-07T20:56:28.187Z,35.53
2022-11-07T20:58:56.787Z,33.55
2022-11-07T21:01:27.580Z,32.50
2022-11-07T21:03:55.258Z,33.70
2022-11-07T21:06:22.386Z,37.15
2022-11-07T21:08:50.591Z,32.38
2022-11-07T21:11:18.046Z,32.63
2022-11-07T21:13:52.390Z,29.00
2022-11-07T21:16:21.955Z,36.90
2022-11-07T21:18:50.540Z,35.03
2022-11-07T21:21:21.300Z,34.70
2022-11-07T21:23:50.521Z,35.97
2022-11-07T21:26:26.733Z,36.05
2022-11-07T21:28:54.850Z,35.28
2022-11-07T21:31:25.105Z,37.95
2022-11-07T21:33:52.353Z,36.47
2022-11-07T21:36:22.230Z,38.55
2022-11-07T21:38:49.470Z,39.50
2022-11-07T21:41:17.351Z,46.40
2022-11-07T21:43:44.687Z,41.03
2022-11-07T21:46:13.358Z,37.72
2022-11-07T21:48:41.400Z,39.90
2022-11-07T21:51:33.181Z,38.58
2022-11-07T21:54:00.827Z,34.50
2022-11-07T21:56:30.467Z,34.47
2022-11-07T21:59:00.161Z,44.20
2022-11-07T22:01:28.902Z,38.65
2022-11-07T22:04:06.710Z,41.15
2022-11-07T22:06:36.651Z,34.53
2022-11-07T22:09:05.173Z,42.50
2022-11-07T22:11:32.311Z,37.10
2022-11-07T22:13:59.524Z,37.25
2022-11-07T22:16:26.844Z,39.97
2022-11-07T22:18:54.002Z,40.05
2022-11-07T22:21:23.461Z,43.17
2022-11-07T22:23:51.111Z,44.75
2022-11-07T22:26:20.818Z,47.70
2022-11-07T22:28:49.583Z,43.00
2022-11-07T22:31:20.980Z,42.28
2022-11-07T22:33:48.113Z,46.38
2022-11-07T22:36:15.568Z,41.35
2022-11-07T22:38:43.398Z,41.40
2022-11-07T22:41:14.294Z,41.90
2022-11-07T22:43:41.689Z,47.75
2022-11-07T22:46:12.607Z,39.40
2022-11-07T22:48:40.842Z,47.00
2022-11-07T22:51:13.263Z,43.55
2022-11-07T22:53:41.064Z,42.78
2022-11-07T22:56:19.425Z,46.45
2022-11-07T22:58:47.799Z,47.60
2022-11-07T23:01:21.181Z,42.40
2022-11-07T23:03:49.487Z,44.63
2022-11-07T23:06:18.115Z,42.08
2022-11-07T23:08:46.063Z,46.15
2022-11-07T23:14:11.857Z,40.25
2022-11-07T23:16:44.453Z,44.03
2022-11-07T23:19:14.374Z,44.80
2022-11-07T23:21:42.251Z,45.60
2022-11-07T23:24:10.155Z,46.50
2022-11-07T23:26:37.262Z,44.47
2022-11-07T23:29:11.095Z,38.30
2022-11-07T23:31:43.616Z,44.28
2022-11-07T23:34:11.416Z,48.30
2022-11-07T23:36:40.929Z,42.70
2022-11-07T23:39:10.627Z,40.58
2022-11-07T23:41:37.768Z,46.20
2022-11-07T23:44:04.975Z,48.85
2022-11-07T23:46:50.648Z,45.45
2022-11-07T23:49:36.237Z,45.88
2022-11-07T23:52:04.020Z,49.70
2022-11-07T23:54:49.690Z,40.85
2022-11-07T23:57:16.823Z,48.63
